sensor_id;sensor_type;location;lat;lon;timestamp;temperature;humidity
38020;DHT22;23829;51.350;17.286;2023-07-30T00:02:08;31.40;43.80
38020;DHT22;23829;51.350;17.286;2023-07-30T00:04:34;31.50;43.50
38020;DHT22;23829;51.350;17.286;2023-07-30T00:07:00;31.50;43.40
38020;DHT22;23829;51.350;17.286;2023-07-30T00:09:27;31.30;43.60
38020;DHT22;23829;51.350;17.286;2023-07-30T00:11:53;31.30;43.60
38020;DHT22;23829;51.350;17.286;2023-07-30T00:14:19;31.20;43.60
38020;DHT22;23829;51.350;17.286;2023-07-30T00:16:46;31.20;43.70
38020;DHT22;23829;51.350;17.286;2023-07-30T00:19:12;31.40;43.40
38020;DHT22;23829;51.350;17.286;2023-07-30T00:21:38;31.40;43.50
38020;DHT22;23829;51.350;17.286;2023-07-30T00:24:04;31.40;43.40
38020;DHT22;23829;51.350;17.286;2023-07-30T00:26:31;31.20;43.50
38020;DHT22;23829;51.350;17.286;2023-07-30T00:28:57;31.10;43.60
38020;DHT22;23829;51.350;17.286;2023-07-30T00:31:23;31.10;43.80
38020;DHT22;23829;51.350;17.286;2023-07-30T00:33:49;31.00;44.20
38020;DHT22;23829;51.350;17.286;2023-07-30T00:36:16;31.00;43.70
38020;DHT22;23829;51.350;17.286;2023-07-30T00:38:44;31.00;43.90
38020;DHT22;23829;51.350;17.286;2023-07-30T00:41:10;31.00;44.00
38020;DHT22;23829;51.350;17.286;2023-07-30T00:43:36;31.20;43.50
38020;DHT22;23829;51.350;17.286;2023-07-30T00:46:03;31.20;43.60
38020;DHT22;23829;51.350;17.286;2023-07-30T00:48:30;31.00;43.70
38020;DHT22;23829;51.350;17.286;2023-07-30T00:50:58;31.00;43.80
38020;DHT22;23829;51.350;17.286;2023-07-30T00:53:26;31.00;43.70
38020;DHT22;23829;51.350;17.286;2023-07-30T00:55:54;31.00;43.40
38020;DHT22;23829;51.350;17.286;2023-07-30T00:58:21;31.00;43.60
38020;DHT22;23829;51.350;17.286;2023-07-30T01:00:49;30.90;43.90
38020;DHT22;23829;51.350;17.286;2023-07-30T01:03:16;30.90;43.70
38020;DHT22;23829;51.350;17.286;2023-07-30T01:05:43;31.00;43.40
38020;DHT22;23829;51.350;17.286;2023-07-30T01:08:09;31.00;43.20
38020;DHT22;23829;51.350;17.286;2023-07-30T01:10:37;31.00;43.30
38020;DHT22;23829;51.350;17.286;2023-07-30T01:13:04;30.90;43.60
38020;DHT22;23829;51.350;17.286;2023-07-30T01:15:32;30.80;43.60
38020;DHT22;23829;51.350;17.286;2023-07-30T01:17:59;30.90;43.60
38020;DHT22;23829;51.350;17.286;2023-07-30T01:20:32;31.00;43.50
38020;DHT22;23829;51.350;17.286;2023-07-30T01:22:59;31.20;43.10
38020;DHT22;23829;51.350;17.286;2023-07-30T01:25:29;31.30;42.90
38020;DHT22;23829;51.350;17.286;2023-07-30T01:27:58;31.20;42.80
38020;DHT22;23829;51.350;17.286;2023-07-30T01:30:30;31.00;43.00
38020;DHT22;23829;51.350;17.286;2023-07-30T01:32:58;30.90;43.40
38020;DHT22;23829;51.350;17.286;2023-07-30T01:35:28;30.80;43.50
38020;DHT22;23829;51.350;17.286;2023-07-30T01:37:55;30.80;43.30
38020;DHT22;23829;51.350;17.286;2023-07-30T01:40:22;31.00;43.10
38020;DHT22;23829;51.350;17.286;2023-07-30T01:42:49;31.00;43.10
38020;DHT22;23829;51.350;17.286;2023-07-30T01:45:17;30.80;42.80
38020;DHT22;23829;51.350;17.286;2023-07-30T01:47:43;30.90;42.70
38020;DHT22;23829;51.350;17.286;2023-07-30T01:50:10;30.90;42.70
38020;DHT22;23829;51.350;17.286;2023-07-30T01:52:36;30.90;42.50
38020;DHT22;23829;51.350;17.286;2023-07-30T01:55:03;30.70;42.60
38020;DHT22;23829;51.350;17.286;2023-07-30T01:57:29;30.60;42.80
38020;DHT22;23829;51.350;17.286;2023-07-30T01:59:56;30.60;42.70
38020;DHT22;23829;51.350;17.286;2023-07-30T02:02:22;30.50;42.70
38020;DHT22;23829;51.350;17.286;2023-07-30T02:04:49;30.70;42.80
38020;DHT22;23829;51.350;17.286;2023-07-30T02:07:15;30.70;42.60
38020;DHT22;23829;51.350;17.286;2023-07-30T02:09:41;30.70;42.60
38020;DHT22;23829;51.350;17.286;2023-07-30T02:12:08;30.60;42.50
38020;DHT22;23829;51.350;17.286;2023-07-30T02:14:34;30.70;42.40
38020;DHT22;23829;51.350;17.286;2023-07-30T02:17:00;30.70;42.40
38020;DHT22;23829;51.350;17.286;2023-07-30T02:19:27;30.90;42.40
38020;DHT22;23829;51.350;17.286;2023-07-30T02:21:53;30.70;42.60
38020;DHT22;23829;51.350;17.286;2023-07-30T02:24:20;30.80;42.70
38020;DHT22;23829;51.350;17.286;2023-07-30T02:26:46;30.40;42.90
38020;DHT22;23829;51.350;17.286;2023-07-30T02:29:12;30.30;43.20
38020;DHT22;23829;51.350;17.286;2023-07-30T02:31:38;30.30;42.80
38020;DHT22;23829;51.350;17.286;2023-07-30T02:34:06;30.30;43.10
38020;DHT22;23829;51.350;17.286;2023-07-30T02:36:33;30.20;43.40
38020;DHT22;23829;51.350;17.286;2023-07-30T02:39:00;30.10;43.50
38020;DHT22;23829;51.350;17.286;2023-07-30T02:41:26;30.10;43.40
38020;DHT22;23829;51.350;17.286;2023-07-30T02:43:53;30.00;43.70
38020;DHT22;23829;51.350;17.286;2023-07-30T02:46:20;30.30;43.80
38020;DHT22;23829;51.350;17.286;2023-07-30T02:48:46;30.40;43.30
38020;DHT22;23829;51.350;17.286;2023-07-30T02:51:12;30.20;43.60
38020;DHT22;23829;51.350;17.286;2023-07-30T02:53:39;30.40;43.70
38020;DHT22;23829;51.350;17.286;2023-07-30T02:56:05;30.50;43.20
38020;DHT22;23829;51.350;17.286;2023-07-30T02:58:31;30.30;43.50
38020;DHT22;23829;51.350;17.286;2023-07-30T03:01:08;30.40;43.40
38020;DHT22;23829;51.350;17.286;2023-07-30T03:03:34;30.30;43.40
38020;DHT22;23829;51.350;17.286;2023-07-30T03:06:01;30.50;43.20
38020;DHT22;23829;51.350;17.286;2023-07-30T03:08:27;30.50;43.10
38020;DHT22;23829;51.350;17.286;2023-07-30T03:10:53;30.40;43.20
38020;DHT22;23829;51.350;17.286;2023-07-30T03:13:20;30.10;43.60
38020;DHT22;23829;51.350;17.286;2023-07-30T03:15:47;30.00;43.90
38020;DHT22;23829;51.350;17.286;2023-07-30T03:18:14;29.90;44.30
38020;DHT22;23829;51.350;17.286;2023-07-30T03:20:40;30.00;44.40
38020;DHT22;23829;51.350;17.286;2023-07-30T03:23:06;29.80;44.50
38020;DHT22;23829;51.350;17.286;2023-07-30T03:25:33;29.70;44.50
38020;DHT22;23829;51.350;17.286;2023-07-30T03:27:59;29.70;44.40
38020;DHT22;23829;51.350;17.286;2023-07-30T03:30:25;29.80;44.70
38020;DHT22;23829;51.350;17.286;2023-07-30T03:32:52;29.80;44.50
38020;DHT22;23829;51.350;17.286;2023-07-30T03:35:19;29.90;44.80
38020;DHT22;23829;51.350;17.286;2023-07-30T03:37:45;29.90;44.70
38020;DHT22;23829;51.350;17.286;2023-07-30T03:40:11;30.00;44.30
38020;DHT22;23829;51.350;17.286;2023-07-30T03:42:38;30.00;44.50
38020;DHT22;23829;51.350;17.286;2023-07-30T03:45:05;30.20;44.50
38020;DHT22;23829;51.350;17.286;2023-07-30T03:47:31;30.30;44.50
38020;DHT22;23829;51.350;17.286;2023-07-30T03:49:57;30.30;44.50
38020;DHT22;23829;51.350;17.286;2023-07-30T03:52:24;30.60;44.20
38020;DHT22;23829;51.350;17.286;2023-07-30T03:54:50;30.70;43.90
38020;DHT22;23829;51.350;17.286;2023-07-30T03:57:17;30.50;44.80
38020;DHT22;23829;51.350;17.286;2023-07-30T03:59:43;30.70;44.20
38020;DHT22;23829;51.350;17.286;2023-07-30T04:02:10;30.70;44.00
38020;DHT22;23829;51.350;17.286;2023-07-30T04:04:44;30.70;44.20
38020;DHT22;23829;51.350;17.286;2023-07-30T04:07:12;30.70;44.20
38020;DHT22;23829;51.350;17.286;2023-07-30T04:09:38;30.70;44.20
38020;DHT22;23829;51.350;17.286;2023-07-30T04:12:05;30.90;44.20
38020;DHT22;23829;51.350;17.286;2023-07-30T04:14:31;30.80;44.20
38020;DHT22;23829;51.350;17.286;2023-07-30T04:16:58;30.90;44.10
38020;DHT22;23829;51.350;17.286;2023-07-30T04:19:24;30.90;44.10
38020;DHT22;23829;51.350;17.286;2023-07-30T04:21:50;30.80;44.20
38020;DHT22;23829;51.350;17.286;2023-07-30T04:24:18;31.00;44.10
38020;DHT22;23829;51.350;17.286;2023-07-30T04:26:44;30.90;44.00
38020;DHT22;23829;51.350;17.286;2023-07-30T04:29:10;30.80;44.20
38020;DHT22;23829;51.350;17.286;2023-07-30T04:31:37;30.80;44.20
38020;DHT22;23829;51.350;17.286;2023-07-30T04:34:03;31.00;44.20
38020;DHT22;23829;51.350;17.286;2023-07-30T04:36:31;31.00;44.20
38020;DHT22;23829;51.350;17.286;2023-07-30T04:38:57;31.10;44.20
38020;DHT22;23829;51.350;17.286;2023-07-30T04:41:30;31.30;43.90
38020;DHT22;23829;51.350;17.286;2023-07-30T04:43:57;31.10;44.40
38020;DHT22;23829;51.350;17.286;2023-07-30T04:46:25;31.00;44.30
38020;DHT22;23829;51.350;17.286;2023-07-30T04:48:52;30.90;44.80
38020;DHT22;23829;51.350;17.286;2023-07-30T04:51:20;30.90;44.70
38020;DHT22;23829;51.350;17.286;2023-07-30T04:53:46;31.20;44.30
38020;DHT22;23829;51.350;17.286;2023-07-30T04:56:13;31.20;44.20
38020;DHT22;23829;51.350;17.286;2023-07-30T04:58:40;31.40;43.80
38020;DHT22;23829;51.350;17.286;2023-07-30T05:01:06;31.40;44.00
38020;DHT22;23829;51.350;17.286;2023-07-30T05:03:32;31.40;44.50
38020;DHT22;23829;51.350;17.286;2023-07-30T05:05:59;31.50;44.20
38020;DHT22;23829;51.350;17.286;2023-07-30T05:08:25;31.80;43.70
38020;DHT22;23829;51.350;17.286;2023-07-30T05:10:51;31.90;43.30
38020;DHT22;23829;51.350;17.286;2023-07-30T05:13:17;32.00;43.20
38020;DHT22;23829;51.350;17.286;2023-07-30T05:15:44;31.90;43.40
38020;DHT22;23829;51.350;17.286;2023-07-30T05:18:10;32.00;43.50
38020;DHT22;23829;51.350;17.286;2023-07-30T05:20:37;32.00;43.50
38020;DHT22;23829;51.350;17.286;2023-07-30T05:23:03;32.10;43.30
38020;DHT22;23829;51.350;17.286;2023-07-30T05:25:30;31.90;43.40
38020;DHT22;23829;51.350;17.286;2023-07-30T05:27:56;32.20;42.70
38020;DHT22;23829;51.350;17.286;2023-07-30T05:30:22;32.00;43.70
38020;DHT22;23829;51.350;17.286;2023-07-30T05:32:48;32.10;43.30
38020;DHT22;23829;51.350;17.286;2023-07-30T05:35:15;32.30;42.80
38020;DHT22;23829;51.350;17.286;2023-07-30T05:37:42;32.40;43.10
38020;DHT22;23829;51.350;17.286;2023-07-30T05:40:09;32.30;43.90
38020;DHT22;23829;51.350;17.286;2023-07-30T05:42:35;32.00;43.90
38020;DHT22;23829;51.350;17.286;2023-07-30T05:45:02;32.30;43.00
38020;DHT22;23829;51.350;17.286;2023-07-30T05:47:28;32.70;42.70
38020;DHT22;23829;51.350;17.286;2023-07-30T05:49:54;32.70;42.40
38020;DHT22;23829;51.350;17.286;2023-07-30T05:52:21;32.90;42.00
38020;DHT22;23829;51.350;17.286;2023-07-30T05:54:47;32.70;42.60
38020;DHT22;23829;51.350;17.286;2023-07-30T05:57:13;32.90;42.10
38020;DHT22;23829;51.350;17.286;2023-07-30T05:59:40;32.80;42.10
38020;DHT22;23829;51.350;17.286;2023-07-30T06:02:06;32.70;42.50
38020;DHT22;23829;51.350;17.286;2023-07-30T06:04:33;32.70;42.50
38020;DHT22;23829;51.350;17.286;2023-07-30T06:07:01;32.70;42.10
38020;DHT22;23829;51.350;17.286;2023-07-30T06:09:29;33.00;41.90
38020;DHT22;23829;51.350;17.286;2023-07-30T06:11:58;32.70;42.40
38020;DHT22;23829;51.350;17.286;2023-07-30T06:14:25;32.80;42.40
38020;DHT22;23829;51.350;17.286;2023-07-30T06:16:52;33.00;42.20
38020;DHT22;23829;51.350;17.286;2023-07-30T06:19:19;33.20;41.70
38020;DHT22;23829;51.350;17.286;2023-07-30T06:21:45;33.20;42.10
38020;DHT22;23829;51.350;17.286;2023-07-30T06:24:12;33.40;41.60
38020;DHT22;23829;51.350;17.286;2023-07-30T06:26:38;33.40;41.70
38020;DHT22;23829;51.350;17.286;2023-07-30T06:29:06;33.60;41.00
38020;DHT22;23829;51.350;17.286;2023-07-30T06:31:32;33.60;41.20
38020;DHT22;23829;51.350;17.286;2023-07-30T06:33:58;33.90;40.80
38020;DHT22;23829;51.350;17.286;2023-07-30T06:36:24;33.90;40.40
38020;DHT22;23829;51.350;17.286;2023-07-30T06:38:51;33.70;41.30
38020;DHT22;23829;51.350;17.286;2023-07-30T06:41:17;33.60;41.20
38020;DHT22;23829;51.350;17.286;2023-07-30T06:43:44;33.20;41.80
38020;DHT22;23829;51.350;17.286;2023-07-30T06:46:10;33.20;41.90
38020;DHT22;23829;51.350;17.286;2023-07-30T06:48:36;33.30;41.80
38020;DHT22;23829;51.350;17.286;2023-07-30T06:51:06;33.40;41.90
38020;DHT22;23829;51.350;17.286;2023-07-30T06:53:33;33.80;42.00
38020;DHT22;23829;51.350;17.286;2023-07-30T06:55:59;34.20;41.50
38020;DHT22;23829;51.350;17.286;2023-07-30T06:58:25;34.10;40.90
38020;DHT22;23829;51.350;17.286;2023-07-30T07:00:51;34.10;40.90
38020;DHT22;23829;51.350;17.286;2023-07-30T07:03:18;34.30;40.70
38020;DHT22;23829;51.350;17.286;2023-07-30T07:05:44;34.30;41.00
38020;DHT22;23829;51.350;17.286;2023-07-30T07:08:10;34.50;40.90
38020;DHT22;23829;51.350;17.286;2023-07-30T07:10:36;34.30;41.10
38020;DHT22;23829;51.350;17.286;2023-07-30T07:13:03;34.20;40.40
38020;DHT22;23829;51.350;17.286;2023-07-30T07:15:29;34.20;41.00
38020;DHT22;23829;51.350;17.286;2023-07-30T07:17:55;34.30;40.10
38020;DHT22;23829;51.350;17.286;2023-07-30T07:20:22;34.40;40.30
38020;DHT22;23829;51.350;17.286;2023-07-30T07:22:48;34.50;40.30
38020;DHT22;23829;51.350;17.286;2023-07-30T07:25:14;34.70;39.70
38020;DHT22;23829;51.350;17.286;2023-07-30T07:27:41;34.60;40.70
38020;DHT22;23829;51.350;17.286;2023-07-30T07:30:07;34.80;40.10
38020;DHT22;23829;51.350;17.286;2023-07-30T07:32:34;34.30;41.10
38020;DHT22;23829;51.350;17.286;2023-07-30T07:35:04;33.80;42.00
38020;DHT22;23829;51.350;17.286;2023-07-30T07:37:32;34.20;41.70
38020;DHT22;23829;51.350;17.286;2023-07-30T07:39:58;34.60;40.80
38020;DHT22;23829;51.350;17.286;2023-07-30T07:42:25;34.20;41.80
38020;DHT22;23829;51.350;17.286;2023-07-30T07:44:51;34.00;41.50
38020;DHT22;23829;51.350;17.286;2023-07-30T07:47:17;34.00;41.90
38020;DHT22;23829;51.350;17.286;2023-07-30T07:49:43;34.00;41.50
38020;DHT22;23829;51.350;17.286;2023-07-30T07:52:10;34.40;40.60
38020;DHT22;23829;51.350;17.286;2023-07-30T07:54:36;34.80;40.30
38020;DHT22;23829;51.350;17.286;2023-07-30T07:57:03;35.10;40.10
38020;DHT22;23829;51.350;17.286;2023-07-30T07:59:29;35.10;39.90
38020;DHT22;23829;51.350;17.286;2023-07-30T08:01:56;35.00;40.60
38020;DHT22;23829;51.350;17.286;2023-07-30T08:04:22;35.00;40.30
38020;DHT22;23829;51.350;17.286;2023-07-30T08:06:48;35.10;39.80
38020;DHT22;23829;51.350;17.286;2023-07-30T08:09:14;35.40;39.00
38020;DHT22;23829;51.350;17.286;2023-07-30T08:11:41;35.20;39.70
38020;DHT22;23829;51.350;17.286;2023-07-30T08:14:07;35.40;39.60
38020;DHT22;23829;51.350;17.286;2023-07-30T08:16:33;35.40;40.10
38020;DHT22;23829;51.350;17.286;2023-07-30T08:19:00;35.30;39.70
38020;DHT22;23829;51.350;17.286;2023-07-30T08:21:26;35.00;39.50
38020;DHT22;23829;51.350;17.286;2023-07-30T08:23:52;34.80;39.60
38020;DHT22;23829;51.350;17.286;2023-07-30T08:26:19;35.00;40.00
38020;DHT22;23829;51.350;17.286;2023-07-30T08:28:45;34.90;40.00
38020;DHT22;23829;51.350;17.286;2023-07-30T08:31:11;35.40;39.30
38020;DHT22;23829;51.350;17.286;2023-07-30T08:33:37;35.40;38.90
38020;DHT22;23829;51.350;17.286;2023-07-30T08:36:04;35.70;39.40
38020;DHT22;23829;51.350;17.286;2023-07-30T08:38:30;35.80;37.40
38020;DHT22;23829;51.350;17.286;2023-07-30T08:40:57;35.70;38.10
38020;DHT22;23829;51.350;17.286;2023-07-30T08:43:23;35.30;38.30
38020;DHT22;23829;51.350;17.286;2023-07-30T08:45:49;35.30;38.30
38020;DHT22;23829;51.350;17.286;2023-07-30T08:48:16;35.80;36.50
38020;DHT22;23829;51.350;17.286;2023-07-30T08:50:42;35.80;36.80
38020;DHT22;23829;51.350;17.286;2023-07-30T08:53:09;36.00;36.80
38020;DHT22;23829;51.350;17.286;2023-07-30T08:55:36;36.30;35.90
38020;DHT22;23829;51.350;17.286;2023-07-30T08:58:04;36.10;36.40
38020;DHT22;23829;51.350;17.286;2023-07-30T09:00:34;35.80;36.70
38020;DHT22;23829;51.350;17.286;2023-07-30T09:03:04;35.80;36.40
38020;DHT22;23829;51.350;17.286;2023-07-30T09:05:31;35.80;36.40
38020;DHT22;23829;51.350;17.286;2023-07-30T09:07:58;35.80;36.40
38020;DHT22;23829;51.350;17.286;2023-07-30T09:10:27;35.90;35.40
38020;DHT22;23829;51.350;17.286;2023-07-30T09:12:55;35.90;35.90
38020;DHT22;23829;51.350;17.286;2023-07-30T09:15:33;36.30;36.20
38020;DHT22;23829;51.350;17.286;2023-07-30T09:18:01;36.10;35.60
38020;DHT22;23829;51.350;17.286;2023-07-30T09:20:27;36.20;35.30
38020;DHT22;23829;51.350;17.286;2023-07-30T09:22:56;36.50;34.20
38020;DHT22;23829;51.350;17.286;2023-07-30T09:25:22;36.10;34.40
38020;DHT22;23829;51.350;17.286;2023-07-30T09:27:52;35.80;35.00
38020;DHT22;23829;51.350;17.286;2023-07-30T09:30:23;36.20;34.20
38020;DHT22;23829;51.350;17.286;2023-07-30T09:32:55;36.40;33.50
38020;DHT22;23829;51.350;17.286;2023-07-30T09:35:23;36.40;33.80
38020;DHT22;23829;51.350;17.286;2023-07-30T09:38:00;36.40;34.00
38020;DHT22;23829;51.350;17.286;2023-07-30T09:40:36;36.40;32.90
38020;DHT22;23829;51.350;17.286;2023-07-30T09:43:04;36.50;33.50
38020;DHT22;23829;51.350;17.286;2023-07-30T09:45:34;36.30;33.00
38020;DHT22;23829;51.350;17.286;2023-07-30T09:48:05;36.50;33.70
38020;DHT22;23829;51.350;17.286;2023-07-30T09:50:34;36.40;33.20
38020;DHT22;23829;51.350;17.286;2023-07-30T09:53:01;36.20;33.10
38020;DHT22;23829;51.350;17.286;2023-07-30T09:55:28;36.40;32.50
38020;DHT22;23829;51.350;17.286;2023-07-30T09:57:55;36.50;33.10
38020;DHT22;23829;51.350;17.286;2023-07-30T10:00:21;36.40;33.10
38020;DHT22;23829;51.350;17.286;2023-07-30T10:02:49;36.60;33.10
38020;DHT22;23829;51.350;17.286;2023-07-30T10:05:19;36.50;33.80
38020;DHT22;23829;51.350;17.286;2023-07-30T10:07:54;36.90;34.30
38020;DHT22;23829;51.350;17.286;2023-07-30T10:10:24;36.60;34.10
38020;DHT22;23829;51.350;17.286;2023-07-30T10:12:51;36.90;33.00
38020;DHT22;23829;51.350;17.286;2023-07-30T10:15:19;37.20;33.60
38020;DHT22;23829;51.350;17.286;2023-07-30T10:17:51;37.20;33.00
38020;DHT22;23829;51.350;17.286;2023-07-30T10:20:23;37.30;32.80
38020;DHT22;23829;51.350;17.286;2023-07-30T10:22:54;37.50;33.00
38020;DHT22;23829;51.350;17.286;2023-07-30T10:25:22;37.40;32.60
38020;DHT22;23829;51.350;17.286;2023-07-30T10:27:50;37.50;32.90
38020;DHT22;23829;51.350;17.286;2023-07-30T10:30:18;37.60;33.30
38020;DHT22;23829;51.350;17.286;2023-07-30T10:35:42;37.90;32.10
38020;DHT22;23829;51.350;17.286;2023-07-30T10:38:28;37.90;32.70
38020;DHT22;23829;51.350;17.286;2023-07-30T10:41:08;38.20;31.40
38020;DHT22;23829;51.350;17.286;2023-07-30T10:43:37;38.30;31.20
38020;DHT22;23829;51.350;17.286;2023-07-30T10:46:04;38.60;31.00
38020;DHT22;23829;51.350;17.286;2023-07-30T10:48:37;38.30;31.40
38020;DHT22;23829;51.350;17.286;2023-07-30T10:51:06;38.40;31.80
38020;DHT22;23829;51.350;17.286;2023-07-30T10:53:33;38.40;30.90
38020;DHT22;23829;51.350;17.286;2023-07-30T10:56:03;38.30;31.00
38020;DHT22;23829;51.350;17.286;2023-07-30T10:58:31;38.10;31.50
38020;DHT22;23829;51.350;17.286;2023-07-30T11:00:57;38.00;31.30
38020;DHT22;23829;51.350;17.286;2023-07-30T11:03:25;37.80;31.50
38020;DHT22;23829;51.350;17.286;2023-07-30T11:05:53;37.80;31.70
38020;DHT22;23829;51.350;17.286;2023-07-30T11:08:38;37.80;32.70
38020;DHT22;23829;51.350;17.286;2023-07-30T11:11:07;38.40;31.00
38020;DHT22;23829;51.350;17.286;2023-07-30T11:13:44;38.00;30.80
38020;DHT22;23829;51.350;17.286;2023-07-30T11:16:13;37.30;33.00
38020;DHT22;23829;51.350;17.286;2023-07-30T11:18:40;37.60;32.70
38020;DHT22;23829;51.350;17.286;2023-07-30T11:21:12;37.60;32.90
38020;DHT22;23829;51.350;17.286;2023-07-30T11:23:40;37.70;33.20
38020;DHT22;23829;51.350;17.286;2023-07-30T11:26:12;37.70;31.60
38020;DHT22;23829;51.350;17.286;2023-07-30T11:28:40;38.00;31.60
38020;DHT22;23829;51.350;17.286;2023-07-30T11:31:17;37.70;33.00
38020;DHT22;23829;51.350;17.286;2023-07-30T11:33:47;37.70;33.00
38020;DHT22;23829;51.350;17.286;2023-07-30T11:36:19;37.80;33.00
38020;DHT22;23829;51.350;17.286;2023-07-30T11:38:47;37.90;32.70
38020;DHT22;23829;51.350;17.286;2023-07-30T11:41:15;38.20;31.20
38020;DHT22;23829;51.350;17.286;2023-07-30T11:43:43;38.20;32.80
38020;DHT22;23829;51.350;17.286;2023-07-30T11:46:14;38.20;31.70
38020;DHT22;23829;51.350;17.286;2023-07-30T11:48:42;38.00;31.90
38020;DHT22;23829;51.350;17.286;2023-07-30T11:51:38;38.00;32.60
38020;DHT22;23829;51.350;17.286;2023-07-30T11:54:04;37.90;32.70
38020;DHT22;23829;51.350;17.286;2023-07-30T11:56:32;37.50;32.80
38020;DHT22;23829;51.350;17.286;2023-07-30T11:59:05;37.60;33.40
38020;DHT22;23829;51.350;17.286;2023-07-30T12:01:33;37.60;33.20
38020;DHT22;23829;51.350;17.286;2023-07-30T12:04:02;37.60;32.60
38020;DHT22;23829;51.350;17.286;2023-07-30T12:06:42;37.80;32.90
38020;DHT22;23829;51.350;17.286;2023-07-30T12:09:13;37.90;32.80
38020;DHT22;23829;51.350;17.286;2023-07-30T12:14:20;38.30;32.20
38020;DHT22;23829;51.350;17.286;2023-07-30T12:16:48;38.20;32.30
38020;DHT22;23829;51.350;17.286;2023-07-30T12:19:14;38.20;32.10
38020;DHT22;23829;51.350;17.286;2023-07-30T12:21:40;38.30;32.30
38020;DHT22;23829;51.350;17.286;2023-07-30T12:24:06;38.20;32.40
38020;DHT22;23829;51.350;17.286;2023-07-30T12:26:33;38.20;32.90
38020;DHT22;23829;51.350;17.286;2023-07-30T12:28:59;38.40;31.70
38020;DHT22;23829;51.350;17.286;2023-07-30T12:31:26;38.40;32.00
38020;DHT22;23829;51.350;17.286;2023-07-30T12:33:52;38.70;31.70
38020;DHT22;23829;51.350;17.286;2023-07-30T12:36:19;38.50;32.00
38020;DHT22;23829;51.350;17.286;2023-07-30T12:38:45;38.60;32.00
38020;DHT22;23829;51.350;17.286;2023-07-30T12:41:12;38.40;31.70
38020;DHT22;23829;51.350;17.286;2023-07-30T12:43:39;38.60;32.50
38020;DHT22;23829;51.350;17.286;2023-07-30T12:46:06;38.70;31.20
38020;DHT22;23829;51.350;17.286;2023-07-30T12:48:32;38.80;30.70
38020;DHT22;23829;51.350;17.286;2023-07-30T12:50:58;38.70;31.20
38020;DHT22;23829;51.350;17.286;2023-07-30T12:53:25;38.50;31.80
38020;DHT22;23829;51.350;17.286;2023-07-30T12:55:52;38.40;32.70
38020;DHT22;23829;51.350;17.286;2023-07-30T12:58:18;38.10;32.60
38020;DHT22;23829;51.350;17.286;2023-07-30T13:00:44;38.10;33.00
38020;DHT22;23829;51.350;17.286;2023-07-30T13:03:11;38.20;31.00
38020;DHT22;23829;51.350;17.286;2023-07-30T13:05:37;38.50;31.20
38020;DHT22;23829;51.350;17.286;2023-07-30T13:08:03;38.30;32.30
38020;DHT22;23829;51.350;17.286;2023-07-30T13:10:30;38.00;32.90
38020;DHT22;23829;51.350;17.286;2023-07-30T13:12:56;37.80;33.40
38020;DHT22;23829;51.350;17.286;2023-07-30T13:15:23;37.40;34.20
38020;DHT22;23829;51.350;17.286;2023-07-30T13:17:49;37.10;34.50
38020;DHT22;23829;51.350;17.286;2023-07-30T13:20:16;37.30;34.80
38020;DHT22;23829;51.350;17.286;2023-07-30T13:22:43;37.40;34.70
38020;DHT22;23829;51.350;17.286;2023-07-30T13:25:09;36.90;35.20
38020;DHT22;23829;51.350;17.286;2023-07-30T13:27:36;36.90;35.90
38020;DHT22;23829;51.350;17.286;2023-07-30T13:30:03;36.70;35.80
38020;DHT22;23829;51.350;17.286;2023-07-30T13:32:29;36.70;36.80
38020;DHT22;23829;51.350;17.286;2023-07-30T13:34:56;37.00;36.60
38020;DHT22;23829;51.350;17.286;2023-07-30T13:37:22;36.50;37.00
38020;DHT22;23829;51.350;17.286;2023-07-30T13:39:48;36.60;36.90
38020;DHT22;23829;51.350;17.286;2023-07-30T13:42:15;36.60;36.80
38020;DHT22;23829;51.350;17.286;2023-07-30T13:44:41;36.30;38.30
38020;DHT22;23829;51.350;17.286;2023-07-30T13:47:08;36.10;37.70
38020;DHT22;23829;51.350;17.286;2023-07-30T13:49:35;36.10;37.60
38020;DHT22;23829;51.350;17.286;2023-07-30T13:52:01;36.30;37.20
38020;DHT22;23829;51.350;17.286;2023-07-30T13:54:27;36.40;36.70
38020;DHT22;23829;51.350;17.286;2023-07-30T13:56:53;36.50;36.40
38020;DHT22;23829;51.350;17.286;2023-07-30T13:59:20;36.60;37.00
38020;DHT22;23829;51.350;17.286;2023-07-30T14:01:46;36.60;37.00
38020;DHT22;23829;51.350;17.286;2023-07-30T14:04:13;36.30;36.60
38020;DHT22;23829;51.350;17.286;2023-07-30T14:06:39;36.20;36.60
38020;DHT22;23829;51.350;17.286;2023-07-30T14:09:05;36.40;36.30
38020;DHT22;23829;51.350;17.286;2023-07-30T14:11:31;36.40;36.20
38020;DHT22;23829;51.350;17.286;2023-07-30T14:13:58;36.20;36.40
38020;DHT22;23829;51.350;17.286;2023-07-30T14:16:24;36.20;36.50
38020;DHT22;23829;51.350;17.286;2023-07-30T14:18:50;35.90;36.80
38020;DHT22;23829;51.350;17.286;2023-07-30T14:21:16;35.80;37.20
38020;DHT22;23829;51.350;17.286;2023-07-30T14:23:43;35.90;37.30
38020;DHT22;23829;51.350;17.286;2023-07-30T14:26:09;35.80;37.30
38020;DHT22;23829;51.350;17.286;2023-07-30T14:28:39;35.80;37.10
38020;DHT22;23829;51.350;17.286;2023-07-30T14:31:05;36.10;36.60
38020;DHT22;23829;51.350;17.286;2023-07-30T14:33:32;36.10;36.30
38020;DHT22;23829;51.350;17.286;2023-07-30T14:35:58;36.00;36.30
38020;DHT22;23829;51.350;17.286;2023-07-30T14:38:24;36.00;36.30
38020;DHT22;23829;51.350;17.286;2023-07-30T14:40:50;36.30;35.90
38020;DHT22;23829;51.350;17.286;2023-07-30T14:43:17;36.20;36.70
38020;DHT22;23829;51.350;17.286;2023-07-30T14:45:43;36.20;36.20
38020;DHT22;23829;51.350;17.286;2023-07-30T14:48:10;36.00;36.50
38020;DHT22;23829;51.350;17.286;2023-07-30T14:50:36;36.00;36.40
38020;DHT22;23829;51.350;17.286;2023-07-30T14:53:02;35.80;36.60
38020;DHT22;23829;51.350;17.286;2023-07-30T14:55:29;35.50;37.20
38020;DHT22;23829;51.350;17.286;2023-07-30T14:57:55;35.40;37.60
38020;DHT22;23829;51.350;17.286;2023-07-30T15:00:21;35.30;37.50
38020;DHT22;23829;51.350;17.286;2023-07-30T15:02:48;35.30;37.70
38020;DHT22;23829;51.350;17.286;2023-07-30T15:05:15;35.10;38.10
38020;DHT22;23829;51.350;17.286;2023-07-30T15:07:41;35.20;38.40
38020;DHT22;23829;51.350;17.286;2023-07-30T15:10:07;35.30;38.30
38020;DHT22;23829;51.350;17.286;2023-07-30T15:12:35;35.40;38.60
38020;DHT22;23829;51.350;17.286;2023-07-30T15:15:03;35.40;38.40
38020;DHT22;23829;51.350;17.286;2023-07-30T15:17:30;35.40;38.60
38020;DHT22;23829;51.350;17.286;2023-07-30T15:19:57;35.70;38.70
38020;DHT22;23829;51.350;17.286;2023-07-30T15:22:25;36.00;37.50